Paula Ruble — WDF2276 — position and weather

sailwx.info

Track history (hours):
 
Tides and Currents Weather Stations Pressure Air Temp Water Temp Dewpoint Dewpoint Depression Visibility Wind Speed Wind Dir Waves Ship Positions

Paula Ruble

Owner: Crounse Corporation, Maysville, KY. More information available from US FCC via Universal Licensing System and Coast Guard Vessel Documentation Center.

Last reported at 2015-Jul-30 05:30 UTC. Time now 2015-Aug-04 09:44 UTC.
Position N 38°39' W 083°22'.

Length 42 m.

Type: Tow > 200 m length. MMSI: 367426860.

Date/timePositionNaut miles runAvg speedWind from/ knotsBaromVisibWave heightAir tempDewpointWater temp
2015-Jul-30 05:30N 38°39' W 083°22'4 3.9
2015-Jul-30 04:33N 38°40' W 083°27'7 3.5
2015-Jul-30 02:32N 38°41' W 083°36'5 3.5
2015-Jul-30 01:07N 38°38' W 083°40'2 3.7
2015-Jul-30 00:33N 38°38' W 083°43'4 3.7
2015-Jul-29 23:21N 38°41' W 083°47'4 3.8
2015-Jul-29 22:12N 38°44' W 083°51'3 4.0
2015-Jul-29 21:32N 38°46' W 083°54'9 4.1
2015-Jul-29 19:24N 38°46' W 084°05'4 4.2
2015-Jul-29 18:33N 38°48' W 084°09'2 1.6
2015-Jul-29 17:33N 38°48' W 084°11'1 1.0
2015-Jul-29 16:32N 38°48' W 084°12'2 1.8
2015-Jul-29 15:33N 38°49' W 084°14'3 3.4
2015-Jul-29 14:33N 38°53' W 084°14'3 3.3
2015-Jul-29 13:33N 38°56' W 084°16'3 3.3
2015-Jul-29 12:33N 38°59' W 084°18'3 3.2
2015-Jul-29 11:31N 39°02' W 084°20'3 3.4
2015-Jul-29 10:33N 39°03' W 084°24'3 3.2
2015-Jul-29 09:33N 39°05' W 084°26'3 2.7
2015-Jul-29 08:33N 39°07' W 084°29'4 3.7
2015-Jul-29 07:33N 39°05' W 084°34'4 3.6
2015-Jul-29 06:32N 39°05' W 084°38'4 3.7
2015-Jul-29 05:33N 39°07' W 084°42'3 3.3
2015-Jul-29 04:33N 39°08' W 084°46'4 3.8
2015-Jul-29 03:29N 39°06' W 084°50'  
2015-Jul-26 16:27N 39°02' W 084°53'4 4.4
2015-Jul-26 15:32N 39°06' W 084°50'2 2.1
2015-Jul-26 14:31N 39°07' W 084°48'1 0.6
2015-Jul-26 13:33N 39°07' W 084°48'2 2.3
2015-Jul-26 12:32N 39°08' W 084°46'4 4.2
2015-Jul-26 11:33N 39°06' W 084°41'5 5.0
2015-Jul-26 10:33N 39°05' W 084°35'5 4.8
2015-Jul-26 09:33N 39°06' W 084°29'3 3.4
2015-Jul-26 08:33N 39°04' W 084°26'5 5.0
2015-Jul-26 07:33N 39°02' W 084°20'5 5.3
2015-Jul-26 06:33N 38°57' W 084°17'5 5.0
2015-Jul-26 05:33N 38°53' W 084°14'0 0.1
2015-Jul-26 04:32N 38°53' W 084°14'0 0.4
2015-Jul-26 03:32N 38°52' W 084°14'0 0.1
2015-Jul-26 02:33N 38°52' W 084°14'4 3.7
2015-Jul-26 01:33N 38°49' W 084°13'3 2.8
2015-Jul-26 00:30N 38°48' W 084°10'2 1.7
2015-Jul-25 23:31N 38°47' W 084°08'15 1.6
2015-Jul-25 14:05N 38°42' W 083°50'1 1.0
2015-Jul-25 13:33N 38°42' W 083°49'4 3.4
2015-Jul-25 12:23N 38°39' W 083°46'3 4.1
2015-Jul-25 11:33N 38°38' W 083°42'  
Track history (hours):
 
Tides and Currents Weather Stations Pressure Air Temp Water Temp Dewpoint Dewpoint Depression Visibility Wind Speed Wind Dir Waves Ship Positions

Paula Ruble

Owner: Crounse Corporation, Maysville, KY. More information available from US FCC via Universal Licensing System and Coast Guard Vessel Documentation Center.

Last reported at 2015-Jul-30 05:30 UTC. Time now 2015-Aug-04 09:44 UTC.
Position N 38°39' W 083°22'.

Length 42 m.

Type: Tow > 200 m length. MMSI: 367426860.

Date/timePositionNaut miles runAvg speedWind from/ knotsBaromVisibWave heightAir tempDewpointWater temp
2015-Jul-30 05:30N 38°39' W 083°22'4 3.9
2015-Jul-30 04:33N 38°40' W 083°27'7 3.5
2015-Jul-30 02:32N 38°41' W 083°36'5 3.5
2015-Jul-30 01:07N 38°38' W 083°40'2 3.7
2015-Jul-30 00:33N 38°38' W 083°43'4 3.7
2015-Jul-29 23:21N 38°41' W 083°47'4 3.8
2015-Jul-29 22:12N 38°44' W 083°51'3 4.0
2015-Jul-29 21:32N 38°46' W 083°54'9 4.1
2015-Jul-29 19:24N 38°46' W 084°05'4 4.2
2015-Jul-29 18:33N 38°48' W 084°09'2 1.6
2015-Jul-29 17:33N 38°48' W 084°11'1 1.0
2015-Jul-29 16:32N 38°48' W 084°12'2 1.8
2015-Jul-29 15:33N 38°49' W 084°14'3 3.4
2015-Jul-29 14:33N 38°53' W 084°14'3 3.3
2015-Jul-29 13:33N 38°56' W 084°16'3 3.3
2015-Jul-29 12:33N 38°59' W 084°18'3 3.2
2015-Jul-29 11:31N 39°02' W 084°20'3 3.4
2015-Jul-29 10:33N 39°03' W 084°24'3 3.2
2015-Jul-29 09:33N 39°05' W 084°26'3 2.7
2015-Jul-29 08:33N 39°07' W 084°29'4 3.7
2015-Jul-29 07:33N 39°05' W 084°34'4 3.6
2015-Jul-29 06:32N 39°05' W 084°38'4 3.7
2015-Jul-29 05:33N 39°07' W 084°42'3 3.3
2015-Jul-29 04:33N 39°08' W 084°46'4 3.8
2015-Jul-29 03:29N 39°06' W 084°50'  
2015-Jul-26 16:27N 39°02' W 084°53'4 4.4
2015-Jul-26 15:32N 39°06' W 084°50'2 2.1
2015-Jul-26 14:31N 39°07' W 084°48'1 0.6
2015-Jul-26 13:33N 39°07' W 084°48'2 2.3
2015-Jul-26 12:32N 39°08' W 084°46'4 4.2
2015-Jul-26 11:33N 39°06' W 084°41'5 5.0
2015-Jul-26 10:33N 39°05' W 084°35'5 4.8
2015-Jul-26 09:33N 39°06' W 084°29'3 3.4
2015-Jul-26 08:33N 39°04' W 084°26'5 5.0
2015-Jul-26 07:33N 39°02' W 084°20'5 5.3
2015-Jul-26 06:33N 38°57' W 084°17'5 5.0
2015-Jul-26 05:33N 38°53' W 084°14'0 0.1
2015-Jul-26 04:32N 38°53' W 084°14'0 0.4
2015-Jul-26 03:32N 38°52' W 084°14'0 0.1
2015-Jul-26 02:33N 38°52' W 084°14'4 3.7
2015-Jul-26 01:33N 38°49' W 084°13'3 2.8
2015-Jul-26 00:30N 38°48' W 084°10'2 1.7
2015-Jul-25 23:31N 38°47' W 084°08'15 1.6
2015-Jul-25 14:05N 38°42' W 083°50'1 1.0
2015-Jul-25 13:33N 38°42' W 083°49'4 3.4
2015-Jul-25 12:23N 38°39' W 083°46'3 4.1
2015-Jul-25 11:33N 38°38' W 083°42'  

Dump ship's entire track history